sensor_id;sensor_type;location;lat;lon;timestamp;P1;durP1;ratioP1;P2;durP2;ratioP2
73650;SDS011;61944;52.538;6.108;2024-01-11T05:48:02;32.85;;;16.50;;
73650;SDS011;61944;52.538;6.108;2024-01-11T05:50:28;37.83;;;17.42;;
73650;SDS011;61944;52.538;6.108;2024-01-11T05:52:53;34.00;;;17.48;;
73650;SDS011;61944;52.538;6.108;2024-01-11T05:55:19;43.70;;;19.92;;
73650;SDS011;61944;52.538;6.108;2024-01-11T05:57:45;45.42;;;19.02;;
73650;SDS011;61944;52.538;6.108;2024-01-11T06:00:10;42.08;;;18.83;;
73650;SDS011;61944;52.538;6.108;2024-01-11T06:02:36;39.25;;;18.75;;
73650;SDS011;61944;52.538;6.108;2024-01-11T06:05:02;46.15;;;20.90;;
73650;SDS011;61944;52.538;6.108;2024-01-11T06:07:27;42.65;;;20.00;;
73650;SDS011;61944;52.538;6.108;2024-01-11T06:09:54;37.13;;;17.65;;
73650;SDS011;61944;52.538;6.108;2024-01-11T06:12:19;45.00;;;19.20;;
73650;SDS011;61944;52.538;6.108;2024-01-11T06:14:44;34.42;;;17.98;;
73650;SDS011;61944;52.538;6.108;2024-01-11T06:17:10;46.95;;;19.30;;
73650;SDS011;61944;52.538;6.108;2024-01-11T06:19:36;41.92;;;18.75;;
73650;SDS011;61944;52.538;6.108;2024-01-11T06:22:03;38.70;;;19.55;;
73650;SDS011;61944;52.538;6.108;2024-01-11T06:24:29;43.42;;;19.60;;
73650;SDS011;61944;52.538;6.108;2024-01-11T06:26:54;43.60;;;19.02;;
73650;SDS011;61944;52.538;6.108;2024-01-11T06:29:20;41.95;;;18.58;;
73650;SDS011;61944;52.538;6.108;2024-01-11T06:31:45;39.33;;;19.33;;
73650;SDS011;61944;52.538;6.108;2024-01-11T06:34:10;42.47;;;20.02;;
73650;SDS011;61944;52.538;6.108;2024-01-11T06:36:35;41.67;;;20.00;;
73650;SDS011;61944;52.538;6.108;2024-01-11T06:39:01;40.28;;;17.83;;
73650;SDS011;61944;52.538;6.108;2024-01-11T06:41:26;49.38;;;20.50;;
73650;SDS011;61944;52.538;6.108;2024-01-11T06:43:51;43.35;;;20.20;;
73650;SDS011;61944;52.538;6.108;2024-01-11T06:46:20;43.17;;;19.85;;
73650;SDS011;61944;52.538;6.108;2024-01-11T06:48:47;42.28;;;20.27;;
73650;SDS011;61944;52.538;6.108;2024-01-11T06:51:16;41.50;;;18.25;;
73650;SDS011;61944;52.538;6.108;2024-01-11T06:53:42;50.45;;;20.75;;
73650;SDS011;61944;52.538;6.108;2024-01-11T06:56:16;42.70;;;19.63;;
73650;SDS011;61944;52.538;6.108;2024-01-11T06:58:43;41.00;;;18.80;;
73650;SDS011;61944;52.538;6.108;2024-01-11T07:01:09;40.58;;;18.88;;
73650;SDS011;61944;52.538;6.108;2024-01-11T07:03:35;44.85;;;19.42;;
73650;SDS011;61944;52.538;6.108;2024-01-11T07:06:01;42.30;;;19.35;;
73650;SDS011;61944;52.538;6.108;2024-01-11T07:08:27;39.70;;;18.98;;
73650;SDS011;61944;52.538;6.108;2024-01-11T07:10:53;35.47;;;18.67;;
73650;SDS011;61944;52.538;6.108;2024-01-11T07:13:18;49.72;;;20.95;;
73650;SDS011;61944;52.538;6.108;2024-01-11T07:15:44;43.47;;;18.83;;
73650;SDS011;61944;52.538;6.108;2024-01-11T07:18:09;41.25;;;19.13;;
73650;SDS011;61944;52.538;6.108;2024-01-11T07:20:35;46.03;;;18.27;;
73650;SDS011;61944;52.538;6.108;2024-01-11T07:23:00;50.17;;;22.05;;
73650;SDS011;61944;52.538;6.108;2024-01-11T07:25:26;51.80;;;22.10;;
73650;SDS011;61944;52.538;6.108;2024-01-11T07:27:51;41.63;;;20.60;;
73650;SDS011;61944;52.538;6.108;2024-01-11T07:30:17;47.42;;;21.27;;
73650;SDS011;61944;52.538;6.108;2024-01-11T07:32:43;39.63;;;18.58;;
73650;SDS011;61944;52.538;6.108;2024-01-11T07:35:09;52.92;;;21.67;;
73650;SDS011;61944;52.538;6.108;2024-01-11T07:37:36;47.35;;;19.33;;
73650;SDS011;61944;52.538;6.108;2024-01-11T07:40:02;42.72;;;18.90;;
73650;SDS011;61944;52.538;6.108;2024-01-11T07:42:27;36.60;;;20.50;;
73650;SDS011;61944;52.538;6.108;2024-01-11T07:44:53;40.47;;;19.80;;
73650;SDS011;61944;52.538;6.108;2024-01-11T07:47:18;41.97;;;19.42;;
73650;SDS011;61944;52.538;6.108;2024-01-11T07:49:43;46.45;;;20.27;;
73650;SDS011;61944;52.538;6.108;2024-01-11T07:52:09;54.35;;;21.33;;
73650;SDS011;61944;52.538;6.108;2024-01-11T07:54:34;45.28;;;21.77;;
73650;SDS011;61944;52.538;6.108;2024-01-11T07:57:00;40.40;;;19.70;;
73650;SDS011;61944;52.538;6.108;2024-01-11T07:59:27;44.78;;;19.35;;
73650;SDS011;61944;52.538;6.108;2024-01-11T08:01:53;42.80;;;18.52;;
73650;SDS011;61944;52.538;6.108;2024-01-11T08:04:19;43.40;;;18.35;;
73650;SDS011;61944;52.538;6.108;2024-01-11T08:06:45;35.45;;;18.05;;
73650;SDS011;61944;52.538;6.108;2024-01-11T08:09:11;49.47;;;17.70;;
73650;SDS011;61944;52.538;6.108;2024-01-11T08:11:38;42.10;;;18.30;;
73650;SDS011;61944;52.538;6.108;2024-01-11T08:14:04;46.20;;;18.33;;
73650;SDS011;61944;52.538;6.108;2024-01-11T08:16:30;40.85;;;17.00;;
73650;SDS011;61944;52.538;6.108;2024-01-11T08:18:55;41.70;;;18.60;;
73650;SDS011;61944;52.538;6.108;2024-01-11T08:21:21;42.75;;;18.65;;
73650;SDS011;61944;52.538;6.108;2024-01-11T08:23:46;42.10;;;16.00;;
73650;SDS011;61944;52.538;6.108;2024-01-11T08:26:16;41.00;;;18.52;;
73650;SDS011;61944;52.538;6.108;2024-01-11T08:28:44;56.28;;;20.20;;
73650;SDS011;61944;52.538;6.108;2024-01-11T08:31:09;49.63;;;21.30;;
73650;SDS011;61944;52.538;6.108;2024-01-11T08:33:35;51.25;;;19.65;;
73650;SDS011;61944;52.538;6.108;2024-01-11T08:36:02;59.42;;;23.25;;
73650;SDS011;61944;52.538;6.108;2024-01-11T08:38:29;50.55;;;20.50;;
73650;SDS011;61944;52.538;6.108;2024-01-11T08:40:54;53.85;;;20.35;;
73650;SDS011;61944;52.538;6.108;2024-01-11T08:43:20;49.35;;;18.00;;
73650;SDS011;61944;52.538;6.108;2024-01-11T08:45:45;53.58;;;19.05;;
73650;SDS011;61944;52.538;6.108;2024-01-11T08:48:12;39.22;;;18.33;;
73650;SDS011;61944;52.538;6.108;2024-01-11T08:50:38;52.97;;;20.13;;
73650;SDS011;61944;52.538;6.108;2024-01-11T08:53:03;43.70;;;18.25;;
73650;SDS011;61944;52.538;6.108;2024-01-11T08:55:29;46.03;;;19.23;;
73650;SDS011;61944;52.538;6.108;2024-01-11T08:57:54;50.88;;;20.83;;
73650;SDS011;61944;52.538;6.108;2024-01-11T09:00:19;45.72;;;18.45;;
73650;SDS011;61944;52.538;6.108;2024-01-11T09:02:45;51.63;;;20.17;;
73650;SDS011;61944;52.538;6.108;2024-01-11T09:05:11;47.30;;;17.75;;
73650;SDS011;61944;52.538;6.108;2024-01-11T09:07:36;51.63;;;21.15;;
73650;SDS011;61944;52.538;6.108;2024-01-11T09:10:02;52.80;;;18.98;;
73650;SDS011;61944;52.538;6.108;2024-01-11T09:12:28;52.97;;;18.45;;
73650;SDS011;61944;52.538;6.108;2024-01-11T09:14:53;47.95;;;19.40;;
73650;SDS011;61944;52.538;6.108;2024-01-11T09:17:19;49.67;;;21.63;;
73650;SDS011;61944;52.538;6.108;2024-01-11T09:19:45;51.33;;;18.38;;
73650;SDS011;61944;52.538;6.108;2024-01-11T09:22:10;46.10;;;18.00;;
73650;SDS011;61944;52.538;6.108;2024-01-11T09:24:36;56.60;;;21.05;;
73650;SDS011;61944;52.538;6.108;2024-01-11T09:27:01;41.97;;;19.13;;
73650;SDS011;61944;52.538;6.108;2024-01-11T09:29:28;56.10;;;19.67;;
73650;SDS011;61944;52.538;6.108;2024-01-11T09:31:53;49.17;;;18.45;;
73650;SDS011;61944;52.538;6.108;2024-01-11T09:34:18;46.92;;;19.75;;
73650;SDS011;61944;52.538;6.108;2024-01-11T09:36:44;48.03;;;21.08;;
73650;SDS011;61944;52.538;6.108;2024-01-11T09:39:10;54.50;;;19.50;;
73650;SDS011;61944;52.538;6.108;2024-01-11T09:41:38;40.22;;;19.65;;
73650;SDS011;61944;52.538;6.108;2024-01-11T09:44:08;55.30;;;21.95;;
73650;SDS011;61944;52.538;6.108;2024-01-11T09:46:34;44.53;;;20.58;;
73650;SDS011;61944;52.538;6.108;2024-01-11T09:48:59;57.38;;;19.63;;
73650;SDS011;61944;52.538;6.108;2024-01-11T09:51:28;43.70;;;18.50;;
73650;SDS011;61944;52.538;6.108;2024-01-11T09:53:54;46.65;;;21.48;;
73650;SDS011;61944;52.538;6.108;2024-01-11T09:56:21;50.40;;;18.02;;
73650;SDS011;61944;52.538;6.108;2024-01-11T09:58:49;42.47;;;18.83;;
73650;SDS011;61944;52.538;6.108;2024-01-11T10:01:16;47.10;;;19.10;;
73650;SDS011;61944;52.538;6.108;2024-01-11T10:03:42;46.05;;;17.88;;
73650;SDS011;61944;52.538;6.108;2024-01-11T10:06:09;58.25;;;19.92;;
73650;SDS011;61944;52.538;6.108;2024-01-11T10:08:35;57.53;;;22.92;;
73650;SDS011;61944;52.538;6.108;2024-01-11T10:11:01;50.50;;;20.65;;
73650;SDS011;61944;52.538;6.108;2024-01-11T10:13:28;48.38;;;18.63;;
73650;SDS011;61944;52.538;6.108;2024-01-11T10:16:10;50.70;;;20.05;;
73650;SDS011;61944;52.538;6.108;2024-01-11T10:18:38;52.65;;;20.27;;
73650;SDS011;61944;52.538;6.108;2024-01-11T10:21:04;55.63;;;22.75;;
73650;SDS011;61944;52.538;6.108;2024-01-11T10:23:32;54.67;;;20.77;;
73650;SDS011;61944;52.538;6.108;2024-01-11T10:25:59;61.20;;;21.77;;
73650;SDS011;61944;52.538;6.108;2024-01-11T10:28:25;45.05;;;19.40;;
73650;SDS011;61944;52.538;6.108;2024-01-11T10:30:51;53.95;;;20.85;;
73650;SDS011;61944;52.538;6.108;2024-01-11T10:33:21;55.20;;;20.60;;
73650;SDS011;61944;52.538;6.108;2024-01-11T10:35:50;49.88;;;20.30;;
73650;SDS011;61944;52.538;6.108;2024-01-11T10:38:16;51.58;;;19.67;;
73650;SDS011;61944;52.538;6.108;2024-01-11T10:40:42;48.70;;;20.00;;
73650;SDS011;61944;52.538;6.108;2024-01-11T10:43:11;57.03;;;21.23;;
73650;SDS011;61944;52.538;6.108;2024-01-11T10:48:13;49.05;;;18.02;;
73650;SDS011;61944;52.538;6.108;2024-01-11T10:55:52;43.28;;;19.45;;
73650;SDS011;61944;52.538;6.108;2024-01-11T10:58:20;46.97;;;18.27;;
73650;SDS011;61944;52.538;6.108;2024-01-11T11:00:47;50.03;;;18.80;;
73650;SDS011;61944;52.538;6.108;2024-01-11T11:03:14;50.03;;;18.48;;
73650;SDS011;61944;52.538;6.108;2024-01-11T11:05:41;46.20;;;20.35;;
73650;SDS011;61944;52.538;6.108;2024-01-11T11:08:08;48.83;;;19.02;;
73650;SDS011;61944;52.538;6.108;2024-01-11T11:10:35;51.70;;;20.60;;
73650;SDS011;61944;52.538;6.108;2024-01-11T11:13:01;48.35;;;18.70;;
73650;SDS011;61944;52.538;6.108;2024-01-11T11:15:28;51.90;;;19.30;;
73650;SDS011;61944;52.538;6.108;2024-01-11T11:17:53;46.70;;;17.50;;
73650;SDS011;61944;52.538;6.108;2024-01-11T11:20:19;44.47;;;18.90;;
73650;SDS011;61944;52.538;6.108;2024-01-11T11:22:48;48.25;;;20.67;;
73650;SDS011;61944;52.538;6.108;2024-01-11T11:25:28;41.10;;;18.02;;
73650;SDS011;61944;52.538;6.108;2024-01-11T11:27:55;39.42;;;17.25;;
73650;SDS011;61944;52.538;6.108;2024-01-11T11:30:21;51.60;;;21.00;;
73650;SDS011;61944;52.538;6.108;2024-01-11T11:32:46;46.00;;;18.88;;
73650;SDS011;61944;52.538;6.108;2024-01-11T11:35:11;54.75;;;23.83;;
73650;SDS011;61944;52.538;6.108;2024-01-11T11:37:37;57.03;;;22.48;;
73650;SDS011;61944;52.538;6.108;2024-01-11T11:40:04;49.50;;;21.77;;
73650;SDS011;61944;52.538;6.108;2024-01-11T11:42:35;56.25;;;24.27;;
73650;SDS011;61944;52.538;6.108;2024-01-11T11:45:01;54.03;;;19.75;;
73650;SDS011;61944;52.538;6.108;2024-01-11T11:47:33;51.05;;;23.63;;
73650;SDS011;61944;52.538;6.108;2024-01-11T11:52:34;45.75;;;17.95;;
73650;SDS011;61944;52.538;6.108;2024-01-11T11:55:01;45.80;;;19.42;;
73650;SDS011;61944;52.538;6.108;2024-01-11T11:57:27;63.45;;;22.80;;
73650;SDS011;61944;52.538;6.108;2024-01-11T11:59:56;48.15;;;20.27;;
73650;SDS011;61944;52.538;6.108;2024-01-11T12:02:23;47.15;;;22.52;;
73650;SDS011;61944;52.538;6.108;2024-01-11T12:04:50;52.25;;;21.92;;
73650;SDS011;61944;52.538;6.108;2024-01-11T12:07:16;43.15;;;18.33;;
73650;SDS011;61944;52.538;6.108;2024-01-11T12:09:41;44.95;;;20.23;;
73650;SDS011;61944;52.538;6.108;2024-01-11T12:12:07;51.03;;;22.73;;
73650;SDS011;61944;52.538;6.108;2024-01-11T12:14:33;49.25;;;18.85;;
73650;SDS011;61944;52.538;6.108;2024-01-11T12:17:00;50.15;;;19.38;;
73650;SDS011;61944;52.538;6.108;2024-01-11T12:19:25;48.70;;;19.67;;
73650;SDS011;61944;52.538;6.108;2024-01-11T12:21:51;58.20;;;22.38;;
73650;SDS011;61944;52.538;6.108;2024-01-11T12:24:16;49.13;;;20.85;;
73650;SDS011;61944;52.538;6.108;2024-01-11T12:26:42;50.88;;;20.63;;
73650;SDS011;61944;52.538;6.108;2024-01-11T12:29:08;51.20;;;19.20;;
73650;SDS011;61944;52.538;6.108;2024-01-11T12:31:34;43.40;;;19.02;;
73650;SDS011;61944;52.538;6.108;2024-01-11T12:34:00;43.85;;;18.80;;
73650;SDS011;61944;52.538;6.108;2024-01-11T12:36:29;40.58;;;18.55;;
73650;SDS011;61944;52.538;6.108;2024-01-11T12:38:55;48.45;;;19.60;;
73650;SDS011;61944;52.538;6.108;2024-01-11T12:41:23;49.97;;;18.45;;
73650;SDS011;61944;52.538;6.108;2024-01-11T12:43:49;46.95;;;18.50;;
73650;SDS011;61944;52.538;6.108;2024-01-11T12:46:14;50.88;;;20.58;;
73650;SDS011;61944;52.538;6.108;2024-01-11T12:48:40;40.55;;;17.27;;
73650;SDS011;61944;52.538;6.108;2024-01-11T12:51:06;45.28;;;18.30;;
73650;SDS011;61944;52.538;6.108;2024-01-11T12:53:32;50.38;;;19.80;;
73650;SDS011;61944;52.538;6.108;2024-01-11T12:56:05;36.85;;;16.73;;
73650;SDS011;61944;52.538;6.108;2024-01-11T12:58:35;49.35;;;18.00;;
73650;SDS011;61944;52.538;6.108;2024-01-11T13:01:04;43.00;;;18.92;;
73650;SDS011;61944;52.538;6.108;2024-01-11T13:03:32;34.53;;;17.67;;
73650;SDS011;61944;52.538;6.108;2024-01-11T13:05:58;40.80;;;15.77;;
73650;SDS011;61944;52.538;6.108;2024-01-11T13:08:24;41.08;;;18.38;;
73650;SDS011;61944;52.538;6.108;2024-01-11T13:10:50;44.17;;;17.13;;
73650;SDS011;61944;52.538;6.108;2024-01-11T13:13:15;38.03;;;17.33;;
73650;SDS011;61944;52.538;6.108;2024-01-11T13:15:41;39.38;;;18.27;;
73650;SDS011;61944;52.538;6.108;2024-01-11T13:18:06;41.75;;;17.80;;
73650;SDS011;61944;52.538;6.108;2024-01-11T13:20:32;24.73;;;11.95;;
73650;SDS011;61944;52.538;6.108;2024-01-11T13:25:45;45.95;;;17.58;;
73650;SDS011;61944;52.538;6.108;2024-01-11T13:28:11;36.03;;;13.75;;
73650;SDS011;61944;52.538;6.108;2024-01-11T13:30:37;32.72;;;15.75;;
73650;SDS011;61944;52.538;6.108;2024-01-11T13:33:04;21.15;;;11.27;;
73650;SDS011;61944;52.538;6.108;2024-01-11T13:35:30;47.03;;;15.95;;
73650;SDS011;61944;52.538;6.108;2024-01-11T13:37:55;36.92;;;14.48;;
73650;SDS011;61944;52.538;6.108;2024-01-11T13:40:20;36.85;;;16.73;;
73650;SDS011;61944;52.538;6.108;2024-01-11T13:42:46;27.20;;;14.05;;
73650;SDS011;61944;52.538;6.108;2024-01-11T13:45:11;27.60;;;12.52;;
73650;SDS011;61944;52.538;6.108;2024-01-11T13:47:37;37.45;;;16.40;;
73650;SDS011;61944;52.538;6.108;2024-01-11T13:50:03;44.78;;;19.58;;
73650;SDS011;61944;52.538;6.108;2024-01-11T13:52:29;40.75;;;17.88;;
73650;SDS011;61944;52.538;6.108;2024-01-11T13:54:54;35.10;;;15.35;;
73650;SDS011;61944;52.538;6.108;2024-01-11T13:57:20;35.78;;;13.80;;
73650;SDS011;61944;52.538;6.108;2024-01-11T13:59:46;37.78;;;14.80;;
73650;SDS011;61944;52.538;6.108;2024-01-11T14:02:13;31.13;;;14.90;;
73650;SDS011;61944;52.538;6.108;2024-01-11T14:04:38;32.70;;;15.15;;
73650;SDS011;61944;52.538;6.108;2024-01-11T14:07:04;33.83;;;14.45;;
73650;SDS011;61944;52.538;6.108;2024-01-11T14:09:30;39.90;;;17.02;;
73650;SDS011;61944;52.538;6.108;2024-01-11T14:11:55;32.47;;;15.38;;
73650;SDS011;61944;52.538;6.108;2024-01-11T14:14:21;33.05;;;13.65;;
73650;SDS011;61944;52.538;6.108;2024-01-11T14:16:46;36.33;;;14.10;;
73650;SDS011;61944;52.538;6.108;2024-01-11T14:19:12;37.67;;;16.85;;
73650;SDS011;61944;52.538;6.108;2024-01-11T14:21:38;38.47;;;17.95;;
73650;SDS011;61944;52.538;6.108;2024-01-11T14:24:03;33.53;;;14.90;;
73650;SDS011;61944;52.538;6.108;2024-01-11T14:26:30;42.88;;;19.55;;
73650;SDS011;61944;52.538;6.108;2024-01-11T14:28:57;30.92;;;14.45;;
73650;SDS011;61944;52.538;6.108;2024-01-11T14:31:22;38.97;;;16.40;;
73650;SDS011;61944;52.538;6.108;2024-01-11T14:33:50;27.58;;;12.38;;
73650;SDS011;61944;52.538;6.108;2024-01-11T14:36:15;47.88;;;17.83;;
73650;SDS011;61944;52.538;6.108;2024-01-11T14:38:41;42.63;;;16.50;;
73650;SDS011;61944;52.538;6.108;2024-01-11T14:41:07;34.95;;;15.90;;
73650;SDS011;61944;52.538;6.108;2024-01-11T14:43:34;32.53;;;14.70;;
73650;SDS011;61944;52.538;6.108;2024-01-11T14:46:00;28.00;;;14.07;;
73650;SDS011;61944;52.538;6.108;2024-01-11T14:48:25;30.90;;;13.65;;
73650;SDS011;61944;52.538;6.108;2024-01-11T14:50:51;35.38;;;14.80;;
73650;SDS011;61944;52.538;6.108;2024-01-11T14:53:17;38.45;;;15.60;;
73650;SDS011;61944;52.538;6.108;2024-01-11T14:55:43;26.27;;;10.95;;
73650;SDS011;61944;52.538;6.108;2024-01-11T14:58:08;35.70;;;15.45;;
73650;SDS011;61944;52.538;6.108;2024-01-11T15:00:34;28.98;;;11.13;;
73650;SDS011;61944;52.538;6.108;2024-01-11T15:02:59;21.23;;;10.18;;
73650;SDS011;61944;52.538;6.108;2024-01-11T15:05:25;29.60;;;13.80;;
73650;SDS011;61944;52.538;6.108;2024-01-11T15:07:50;28.05;;;11.43;;
73650;SDS011;61944;52.538;6.108;2024-01-11T15:10:16;30.60;;;12.80;;
73650;SDS011;61944;52.538;6.108;2024-01-11T15:12:41;36.53;;;14.93;;
73650;SDS011;61944;52.538;6.108;2024-01-11T15:15:07;22.42;;;11.57;;
73650;SDS011;61944;52.538;6.108;2024-01-11T15:17:33;29.65;;;10.32;;
73650;SDS011;61944;52.538;6.108;2024-01-11T15:19:58;32.58;;;15.13;;
73650;SDS011;61944;52.538;6.108;2024-01-11T15:22:24;23.88;;;11.13;;
73650;SDS011;61944;52.538;6.108;2024-01-11T15:24:49;30.10;;;12.38;;
73650;SDS011;61944;52.538;6.108;2024-01-11T15:27:18;28.85;;;13.80;;
73650;SDS011;61944;52.538;6.108;2024-01-11T15:29:46;21.92;;;10.27;;
73650;SDS011;61944;52.538;6.108;2024-01-11T15:32:12;28.83;;;10.85;;
73650;SDS011;61944;52.538;6.108;2024-01-11T15:34:41;21.58;;;11.27;;
73650;SDS011;61944;52.538;6.108;2024-01-11T15:37:09;25.98;;;12.05;;
73650;SDS011;61944;52.538;6.108;2024-01-11T15:39:34;27.60;;;13.00;;
73650;SDS011;61944;52.538;6.108;2024-01-11T15:42:00;27.08;;;11.93;;
73650;SDS011;61944;52.538;6.108;2024-01-11T15:44:28;34.72;;;16.10;;
73650;SDS011;61944;52.538;6.108;2024-01-11T15:46:53;33.50;;;13.70;;
73650;SDS011;61944;52.538;6.108;2024-01-11T15:49:19;32.78;;;16.30;;
73650;SDS011;61944;52.538;6.108;2024-01-11T15:51:45;28.48;;;13.77;;
73650;SDS011;61944;52.538;6.108;2024-01-11T15:54:11;26.75;;;12.25;;
73650;SDS011;61944;52.538;6.108;2024-01-11T15:56:36;25.77;;;12.45;;
73650;SDS011;61944;52.538;6.108;2024-01-11T15:59:02;33.92;;;15.20;;
73650;SDS011;61944;52.538;6.108;2024-01-11T16:01:28;32.17;;;15.00;;
73650;SDS011;61944;52.538;6.108;2024-01-11T16:03:54;38.15;;;17.60;;
73650;SDS011;61944;52.538;6.108;2024-01-11T16:06:19;37.63;;;16.55;;
73650;SDS011;61944;52.538;6.108;2024-01-11T16:08:44;27.83;;;14.73;;
73650;SDS011;61944;52.538;6.108;2024-01-11T16:11:12;30.80;;;14.57;;
73650;SDS011;61944;52.538;6.108;2024-01-11T16:13:38;33.72;;;14.55;;
73650;SDS011;61944;52.538;6.108;2024-01-11T16:16:05;37.80;;;17.27;;
73650;SDS011;61944;52.538;6.108;2024-01-11T16:18:33;37.25;;;15.27;;
73650;SDS011;61944;52.538;6.108;2024-01-11T16:20:59;29.98;;;14.57;;
73650;SDS011;61944;52.538;6.108;2024-01-11T16:23:25;28.88;;;14.82;;
73650;SDS011;61944;52.538;6.108;2024-01-11T16:25:50;31.98;;;15.38;;
73650;SDS011;61944;52.538;6.108;2024-01-11T16:28:16;38.53;;;15.73;;
73650;SDS011;61944;52.538;6.108;2024-01-11T16:30:42;34.22;;;14.55;;
73650;SDS011;61944;52.538;6.108;2024-01-11T16:33:07;30.63;;;14.95;;
73650;SDS011;61944;52.538;6.108;2024-01-11T16:35:34;28.95;;;14.60;;
73650;SDS011;61944;52.538;6.108;2024-01-11T16:38:00;30.17;;;14.18;;
73650;SDS011;61944;52.538;6.108;2024-01-11T16:40:25;30.25;;;15.48;;
73650;SDS011;61944;52.538;6.108;2024-01-11T16:42:51;34.35;;;15.13;;
73650;SDS011;61944;52.538;6.108;2024-01-11T16:45:16;30.15;;;14.45;;
73650;SDS011;61944;52.538;6.108;2024-01-11T16:47:43;34.58;;;14.98;;
73650;SDS011;61944;52.538;6.108;2024-01-11T16:50:08;37.00;;;14.25;;
73650;SDS011;61944;52.538;6.108;2024-01-11T16:52:34;33.45;;;15.75;;
73650;SDS011;61944;52.538;6.108;2024-01-11T16:54:59;33.63;;;17.10;;
73650;SDS011;61944;52.538;6.108;2024-01-11T16:57:25;29.10;;;16.30;;
73650;SDS011;61944;52.538;6.108;2024-01-11T16:59:50;29.90;;;15.50;;
73650;SDS011;61944;52.538;6.108;2024-01-11T17:02:16;34.38;;;15.68;;
73650;SDS011;61944;52.538;6.108;2024-01-11T17:04:41;31.80;;;15.15;;
73650;SDS011;61944;52.538;6.108;2024-01-11T17:07:07;41.83;;;19.10;;
73650;SDS011;61944;52.538;6.108;2024-01-11T17:09:34;37.95;;;17.33;;
73650;SDS011;61944;52.538;6.108;2024-01-11T17:11:59;33.05;;;15.90;;
73650;SDS011;61944;52.538;6.108;2024-01-11T17:14:25;33.17;;;17.20;;
73650;SDS011;61944;52.538;6.108;2024-01-11T17:16:50;33.97;;;16.75;;
73650;SDS011;61944;52.538;6.108;2024-01-11T17:19:16;33.58;;;17.98;;
73650;SDS011;61944;52.538;6.108;2024-01-11T17:21:42;34.53;;;18.88;;
73650;SDS011;61944;52.538;6.108;2024-01-11T17:24:07;32.83;;;17.75;;
73650;SDS011;61944;52.538;6.108;2024-01-11T17:26:32;32.42;;;16.63;;
73650;SDS011;61944;52.538;6.108;2024-01-11T17:28:59;33.00;;;16.60;;
73650;SDS011;61944;52.538;6.108;2024-01-11T17:31:24;33.65;;;16.17;;
73650;SDS011;61944;52.538;6.108;2024-01-11T17:33:50;33.90;;;15.88;;
73650;SDS011;61944;52.538;6.108;2024-01-11T17:36:15;43.97;;;22.20;;
73650;SDS011;61944;52.538;6.108;2024-01-11T17:38:41;41.38;;;19.17;;
73650;SDS011;61944;52.538;6.108;2024-01-11T17:41:06;35.65;;;15.93;;
73650;SDS011;61944;52.538;6.108;2024-01-11T17:43:32;33.80;;;17.40;;
73650;SDS011;61944;52.538;6.108;2024-01-11T17:46:00;35.50;;;15.85;;
73650;SDS011;61944;52.538;6.108;2024-01-11T17:48:26;47.80;;;23.92;;
73650;SDS011;61944;52.538;6.108;2024-01-11T17:50:52;44.15;;;22.20;;
73650;SDS011;61944;52.538;6.108;2024-01-11T17:53:17;41.85;;;21.13;;
73650;SDS011;61944;52.538;6.108;2024-01-11T17:55:42;35.58;;;18.02;;
73650;SDS011;61944;52.538;6.108;2024-01-11T17:58:09;43.13;;;20.83;;
73650;SDS011;61944;52.538;6.108;2024-01-11T18:00:34;39.97;;;19.23;;
73650;SDS011;61944;52.538;6.108;2024-01-11T18:02:59;38.80;;;19.35;;
73650;SDS011;61944;52.538;6.108;2024-01-11T18:05:26;33.47;;;18.45;;
73650;SDS011;61944;52.538;6.108;2024-01-11T18:07:52;38.28;;;18.40;;
73650;SDS011;61944;52.538;6.108;2024-01-11T18:10:20;36.83;;;16.85;;
73650;SDS011;61944;52.538;6.108;2024-01-11T18:12:46;32.40;;;18.33;;
73650;SDS011;61944;52.538;6.108;2024-01-11T18:15:12;36.90;;;19.80;;
73650;SDS011;61944;52.538;6.108;2024-01-11T18:17:37;33.42;;;17.17;;
73650;SDS011;61944;52.538;6.108;2024-01-11T18:20:06;35.30;;;16.65;;
73650;SDS011;61944;52.538;6.108;2024-01-11T18:22:32;32.42;;;15.52;;
73650;SDS011;61944;52.538;6.108;2024-01-11T18:24:58;33.15;;;15.02;;
73650;SDS011;61944;52.538;6.108;2024-01-11T18:27:23;35.45;;;16.83;;
73650;SDS011;61944;52.538;6.108;2024-01-11T18:29:48;38.10;;;16.88;;
73650;SDS011;61944;52.538;6.108;2024-01-11T18:32:14;42.47;;;18.30;;
73650;SDS011;61944;52.538;6.108;2024-01-11T18:34:39;37.35;;;18.77;;
73650;SDS011;61944;52.538;6.108;2024-01-11T18:37:05;34.47;;;17.77;;
73650;SDS011;61944;52.538;6.108;2024-01-11T18:39:30;29.65;;;16.35;;
73650;SDS011;61944;52.538;6.108;2024-01-11T18:41:55;40.30;;;16.50;;
73650;SDS011;61944;52.538;6.108;2024-01-11T18:44:22;36.38;;;18.73;;
73650;SDS011;61944;52.538;6.108;2024-01-11T18:46:49;39.45;;;19.10;;
73650;SDS011;61944;52.538;6.108;2024-01-11T18:49:14;45.58;;;20.10;;
73650;SDS011;61944;52.538;6.108;2024-01-11T18:51:41;36.25;;;16.67;;
73650;SDS011;61944;52.538;6.108;2024-01-11T18:54:07;35.58;;;17.73;;
73650;SDS011;61944;52.538;6.108;2024-01-11T18:56:33;36.22;;;18.35;;
73650;SDS011;61944;52.538;6.108;2024-01-11T18:58:59;36.70;;;18.23;;
73650;SDS011;61944;52.538;6.108;2024-01-11T19:01:24;42.05;;;17.85;;
73650;SDS011;61944;52.538;6.108;2024-01-11T19:03:51;39.42;;;16.77;;
73650;SDS011;61944;52.538;6.108;2024-01-11T19:06:17;37.03;;;16.73;;
73650;SDS011;61944;52.538;6.108;2024-01-11T19:08:43;37.67;;;18.55;;
73650;SDS011;61944;52.538;6.108;2024-01-11T19:11:09;37.33;;;17.85;;
73650;SDS011;61944;52.538;6.108;2024-01-11T19:13:34;38.50;;;18.15;;
73650;SDS011;61944;52.538;6.108;2024-01-11T19:15:59;34.47;;;17.55;;
73650;SDS011;61944;52.538;6.108;2024-01-11T19:18:25;31.55;;;17.15;;
73650;SDS011;61944;52.538;6.108;2024-01-11T19:20:50;36.78;;;17.88;;
73650;SDS011;61944;52.538;6.108;2024-01-11T19:23:19;42.88;;;19.40;;
73650;SDS011;61944;52.538;6.108;2024-01-11T19:25:46;37.05;;;16.95;;
73650;SDS011;61944;52.538;6.108;2024-01-11T19:28:11;38.22;;;17.92;;
73650;SDS011;61944;52.538;6.108;2024-01-11T19:30:37;37.10;;;18.13;;
73650;SDS011;61944;52.538;6.108;2024-01-11T19:33:03;36.90;;;18.73;;
73650;SDS011;61944;52.538;6.108;2024-01-11T19:35:30;36.35;;;19.33;;
73650;SDS011;61944;52.538;6.108;2024-01-11T19:37:55;37.83;;;19.63;;
73650;SDS011;61944;52.538;6.108;2024-01-11T19:40:21;46.42;;;19.60;;
73650;SDS011;61944;52.538;6.108;2024-01-11T19:42:46;38.35;;;19.75;;
73650;SDS011;61944;52.538;6.108;2024-01-11T19:45:11;32.50;;;18.73;;
73650;SDS011;61944;52.538;6.108;2024-01-11T19:47:38;39.55;;;19.90;;
73650;SDS011;61944;52.538;6.108;2024-01-11T19:50:07;43.78;;;20.38;;
73650;SDS011;61944;52.538;6.108;2024-01-11T19:52:35;44.38;;;19.15;;
73650;SDS011;61944;52.538;6.108;2024-01-11T19:55:01;30.05;;;17.40;;
73650;SDS011;61944;52.538;6.108;2024-01-11T19:57:27;40.58;;;20.67;;
73650;SDS011;61944;52.538;6.108;2024-01-11T19:59:53;36.55;;;18.17;;
73650;SDS011;61944;52.538;6.108;2024-01-11T20:02:18;34.53;;;19.42;;
73650;SDS011;61944;52.538;6.108;2024-01-11T20:04:43;32.75;;;17.67;;
73650;SDS011;61944;52.538;6.108;2024-01-11T20:07:09;42.20;;;18.73;;
73650;SDS011;61944;52.538;6.108;2024-01-11T20:09:34;37.33;;;18.60;;
73650;SDS011;61944;52.538;6.108;2024-01-11T20:12:00;34.88;;;17.35;;
73650;SDS011;61944;52.538;6.108;2024-01-11T20:14:25;38.55;;;16.67;;